Terminal Aerodrome Forecast
Issued by NWS

Home | Current Version | Previous Version | Text Only | Print | Product List | Glossary On
Versions: 1 2 3 4 5 6 7 8 9 10 11 12 13
000
FTUS44 KTSA 271100 RRA
TAFXNA
TAF
KXNA 271146Z 2712/2812 29008KT 5SM -RA BKN008 OVC025
      TEMPO 2712/2716 P6SM SCT008 OVC025
     FM271800 34005KT P6SM SCT025 OVC050
      TEMPO 2718/2721 6SM -RA BKN025 OVC050
     FM280700 01002KT P6SM BKN100=

USA.gov is the U.S. government's official web portal to all federal, state and local government web resources and services.